createdAt,value
2018-11-21T00:01:13.248Z,81.50
2018-11-21T00:03:41.695Z,81.40
2018-11-21T00:06:10.200Z,81.50
2018-11-21T00:08:38.691Z,81.80
2018-11-21T00:11:07.547Z,81.80
2018-11-21T00:13:36.017Z,81.80
2018-11-21T00:16:04.807Z,81.50
2018-11-21T00:18:33.447Z,81.70
2018-11-21T00:21:01.838Z,81.90
2018-11-21T00:23:30.623Z,81.70
2018-11-21T00:25:59.236Z,81.60
2018-11-21T00:28:27.828Z,81.80
2018-11-21T00:30:56.345Z,81.60
2018-11-21T00:33:24.962Z,81.60
2018-11-21T00:35:53.323Z,81.50
2018-11-21T00:38:21.884Z,81.50
2018-11-21T00:40:51.116Z,81.30
2018-11-21T00:43:19.582Z,81.60
2018-11-21T00:45:48.183Z,82.70
2018-11-21T00:48:16.657Z,81.70
2018-11-21T00:50:47.344Z,81.50
2018-11-21T00:53:16.199Z,81.40
2018-11-21T00:55:44.668Z,81.70
2018-11-21T00:58:13.243Z,81.90
2018-11-21T01:00:41.891Z,82.10
2018-11-21T01:03:10.948Z,81.40
2018-11-21T01:05:39.614Z,81.80
2018-11-21T01:08:08.456Z,81.70
2018-11-21T01:10:37.008Z,81.80
2018-11-21T01:13:05.612Z,81.70
2018-11-21T01:15:34.219Z,81.60
2018-11-21T01:18:02.769Z,81.80
2018-11-21T01:20:31.287Z,81.70
2018-11-21T01:22:59.966Z,81.50
2018-11-21T01:25:28.418Z,81.50
2018-11-21T01:27:57.108Z,81.60
2018-11-21T01:30:25.680Z,81.70
2018-11-21T01:32:54.629Z,81.70
2018-11-21T01:35:23.205Z,81.70
2018-11-21T01:37:52.117Z,82.00
2018-11-21T01:40:20.718Z,81.80
2018-11-21T01:42:49.230Z,82.10
2018-11-21T01:45:17.716Z,81.80
2018-11-21T01:47:46.822Z,81.80
2018-11-21T01:50:16.432Z,81.80
2018-11-21T01:52:44.991Z,81.90
2018-11-21T01:55:13.541Z,82.00
2018-11-21T01:57:41.952Z,81.90
2018-11-21T02:00:11.839Z,82.20
2018-11-21T02:02:40.315Z,82.40
2018-11-21T02:05:08.898Z,82.20
2018-11-21T02:07:37.311Z,82.30
2018-11-21T02:10:06.665Z,82.30
2018-11-21T02:12:35.251Z,82.60
2018-11-21T02:15:03.721Z,82.40
2018-11-21T02:17:33.146Z,82.60
2018-11-21T02:20:01.874Z,82.60
2018-11-21T02:22:30.883Z,82.50
2018-11-21T02:24:59.723Z,82.50
2018-11-21T02:27:28.199Z,82.50
2018-11-21T02:29:56.688Z,82.50
2018-11-21T02:32:25.057Z,82.30
2018-11-21T02:34:53.800Z,82.20
2018-11-21T02:37:22.255Z,82.30
2018-11-21T02:39:50.796Z,82.50
2018-11-21T02:42:19.497Z,82.50
2018-11-21T02:44:48.010Z,82.50
2018-11-21T02:47:16.468Z,82.90
2018-11-21T02:49:45.376Z,83.00
2018-11-21T02:52:13.924Z,82.90
2018-11-21T02:54:42.416Z,83.00
2018-11-21T02:57:22.678Z,83.10
2018-11-21T02:59:55.817Z,83.20
2018-11-21T03:02:24.337Z,83.90
2018-11-21T03:04:52.858Z,83.30
2018-11-21T03:07:21.352Z,83.20
2018-11-21T03:09:49.915Z,83.20
2018-11-21T03:12:18.327Z,83.40
2018-11-21T03:14:47.088Z,83.70
2018-11-21T03:17:15.599Z,83.80
2018-11-21T03:19:44.333Z,83.90
2018-11-21T03:22:12.804Z,83.80
2018-11-21T03:24:41.180Z,83.50
2018-11-21T03:27:09.891Z,83.40
2018-11-21T03:29:38.342Z,83.30
2018-11-21T03:32:06.795Z,83.70
2018-11-21T03:34:35.211Z,83.50
2018-11-21T03:37:03.867Z,83.60
2018-11-21T03:39:33.096Z,83.70
2018-11-21T03:42:01.548Z,83.80
2018-11-21T03:44:30.317Z,83.80
2018-11-21T03:46:58.749Z,83.80
2018-11-21T03:49:27.269Z,83.80
2018-11-21T03:51:55.840Z,83.80
2018-11-21T03:54:24.398Z,83.90
2018-11-21T03:56:52.779Z,83.60
2018-11-21T03:59:21.623Z,83.50
2018-11-21T04:01:50.107Z,83.70
2018-11-21T04:04:18.599Z,83.60
2018-11-21T04:06:47.091Z,83.60
2018-11-21T04:09:15.548Z,83.60
2018-11-21T04:11:44.069Z,83.60
2018-11-21T04:14:12.888Z,84.40
2018-11-21T04:16:41.935Z,83.70
2018-11-21T04:19:10.486Z,83.70
2018-11-21T04:21:38.846Z,83.90
2018-11-21T04:24:07.494Z,84.00
2018-11-21T04:26:36.206Z,84.00
2018-11-21T04:29:04.726Z,84.10
2018-11-21T04:31:33.280Z,84.00
2018-11-21T04:34:01.940Z,84.00
2018-11-21T04:36:30.347Z,84.20
2018-11-21T04:38:58.898Z,84.10
2018-11-21T04:41:27.401Z,84.00
2018-11-21T04:43:56.204Z,84.10
2018-11-21T04:46:24.606Z,84.00
2018-11-21T04:48:53.056Z,84.10
2018-11-21T04:51:21.413Z,84.10
2018-11-21T04:53:50.109Z,84.20
2018-11-21T04:56:18.697Z,84.40
2018-11-21T04:58:48.809Z,84.20
2018-11-21T05:01:17.445Z,84.20
2018-11-21T05:03:46.001Z,84.40
2018-11-21T05:06:14.798Z,84.10
2018-11-21T05:08:43.384Z,84.10
2018-11-21T05:11:12.178Z,84.00
2018-11-21T05:13:41.010Z,84.10
2018-11-21T05:16:09.742Z,84.40
2018-11-21T05:18:38.130Z,84.30
2018-11-21T05:21:06.565Z,84.40
2018-11-21T05:23:35.535Z,84.50
2018-11-21T05:26:04.022Z,84.20
2018-11-21T05:28:32.543Z,84.00
2018-11-21T05:31:01.031Z,84.00
2018-11-21T05:33:29.549Z,84.10
2018-11-21T05:35:58.127Z,84.00
2018-11-21T05:38:26.695Z,84.00
2018-11-21T05:40:55.110Z,83.80
2018-11-21T05:43:25.654Z,84.00
2018-11-21T05:45:54.324Z,84.10
2018-11-21T05:48:22.970Z,84.20
2018-11-21T05:50:51.541Z,84.20
2018-11-21T05:53:19.927Z,84.30
2018-11-21T05:55:48.423Z,84.40
2018-11-21T05:58:17.966Z,84.40
2018-11-21T06:00:49.182Z,84.40
2018-11-21T06:03:15.007Z,84.50
2018-11-21T06:05:43.604Z,84.50
2018-11-21T06:08:13.003Z,84.50
2018-11-21T06:10:41.465Z,84.40
2018-11-21T06:13:09.842Z,84.20
2018-11-21T06:15:38.214Z,84.20
2018-11-21T06:18:06.516Z,84.20
2018-11-21T06:20:35.040Z,84.00
2018-11-21T06:23:03.354Z,83.90
2018-11-21T06:25:31.656Z,83.80
2018-11-21T06:28:00.601Z,83.80
2018-11-21T06:30:30.434Z,83.80
2018-11-21T06:32:57.486Z,84.00
2018-11-21T06:35:25.884Z,84.10
2018-11-21T06:37:54.451Z,84.40
2018-11-21T06:40:22.771Z,84.40
2018-11-21T06:42:58.727Z,84.40
2018-11-21T06:45:28.318Z,84.50
2018-11-21T06:47:57.420Z,84.50
2018-11-21T06:50:28.356Z,85.10
2018-11-21T06:52:58.830Z,84.20
2018-11-21T06:55:27.553Z,84.10
2018-11-21T06:57:56.902Z,84.20
2018-11-21T07:00:29.907Z,84.10
2018-11-21T07:03:18.191Z,84.40
2018-11-21T07:05:46.978Z,84.50
2018-11-21T07:08:15.542Z,84.50
2018-11-21T07:10:44.424Z,84.20
2018-11-21T07:13:13.094Z,84.20
2018-11-21T07:15:41.753Z,84.30
2018-11-21T07:18:10.265Z,84.40
2018-11-21T07:20:42.368Z,84.50
2018-11-21T07:23:10.946Z,84.60
2018-11-21T07:25:40.090Z,84.80
2018-11-21T07:28:12.955Z,85.30
2018-11-21T07:30:39.293Z,85.50
2018-11-21T07:33:08.025Z,85.50
2018-11-21T07:35:36.567Z,85.40
2018-11-21T07:38:04.879Z,85.40
2018-11-21T07:40:33.233Z,85.20
2018-11-21T07:43:01.565Z,85.40
2018-11-21T07:45:33.335Z,85.30
2018-11-21T07:48:00.726Z,85.30
2018-11-21T07:50:29.181Z,85.40
2018-11-21T07:52:57.709Z,85.30
2018-11-21T07:55:26.041Z,85.20
2018-11-21T07:57:56.173Z,85.40
2018-11-21T08:00:52.801Z,85.40
2018-11-21T08:03:22.003Z,85.20
2018-11-21T08:06:12.474Z,85.30
2018-11-21T08:08:58.729Z,85.20
2018-11-21T08:11:36.982Z,85.50
2018-11-21T08:14:23.375Z,86.00
2018-11-21T08:17:09.950Z,86.10
2018-11-21T08:20:13.146Z,86.20
2018-11-21T08:22:56.820Z,86.00
2018-11-21T08:25:47.474Z,85.60
2018-11-21T08:28:21.140Z,85.40
2018-11-21T08:30:51.106Z,85.10
2018-11-21T08:33:19.765Z,85.00
2018-11-21T08:35:48.344Z,85.30
2018-11-21T08:38:17.367Z,85.40
2018-11-21T08:40:51.259Z,85.40
2018-11-21T08:43:20.105Z,85.40
2018-11-21T08:45:49.299Z,85.40
2018-11-21T08:48:20.076Z,85.50
2018-11-21T08:51:27.899Z,85.40
2018-11-21T08:53:48.447Z,85.50
2018-11-21T08:56:17.072Z,85.70
2018-11-21T08:58:45.853Z,85.40
2018-11-21T09:01:14.412Z,85.70
2018-11-21T09:03:43.032Z,85.70
2018-11-21T09:06:11.528Z,86.00
2018-11-21T09:09:14.837Z,85.60
2018-11-21T09:11:43.599Z,85.50
2018-11-21T09:14:12.094Z,85.50
2018-11-21T09:16:40.708Z,85.30
2018-11-21T09:19:11.734Z,84.70
2018-11-21T09:21:40.413Z,85.00
2018-11-21T09:24:08.915Z,85.20
2018-11-21T09:26:37.549Z,85.30
2018-11-21T09:29:06.045Z,84.90
2018-11-21T09:31:35.010Z,84.60
2018-11-21T09:34:20.475Z,84.50
2018-11-21T09:37:27.183Z,84.70
2018-11-21T09:39:54.123Z,84.90
2018-11-21T09:42:25.899Z,84.90
2018-11-21T09:45:34.130Z,85.20
2018-11-21T09:48:17.322Z,85.30
2018-11-21T09:50:44.441Z,85.20
2018-11-21T09:53:16.346Z,85.40
2018-11-21T09:55:44.637Z,85.50
2018-11-21T09:58:13.671Z,85.50
2018-11-21T10:01:21.017Z,85.10
2018-11-21T10:03:49.470Z,85.20
2018-11-21T10:06:24.232Z,85.30
2018-11-21T10:09:14.471Z,85.30
2018-11-21T10:11:42.865Z,85.20
2018-11-21T10:14:11.415Z,84.60
2018-11-21T10:16:39.786Z,84.50
2018-11-21T10:19:08.274Z,84.50
2018-11-21T10:21:36.886Z,84.50
2018-11-21T10:24:07.913Z,84.90
2018-11-21T10:26:36.365Z,85.70
2018-11-21T10:29:05.095Z,84.80
2018-11-21T10:31:33.442Z,84.30
2018-11-21T10:34:12.181Z,83.90
2018-11-21T10:36:41.060Z,83.90
2018-11-21T10:39:17.453Z,83.50
2018-11-21T10:41:45.850Z,83.70
2018-11-21T10:44:14.523Z,83.60
2018-11-21T10:46:42.909Z,83.60
2018-11-21T10:49:20.518Z,83.40
2018-11-21T10:51:48.850Z,83.50
2018-11-21T10:54:17.145Z,83.50
2018-11-21T10:56:49.846Z,83.30
2018-11-21T10:59:18.138Z,83.10
2018-11-21T11:02:05.598Z,83.40
2018-11-21T11:04:38.074Z,83.80
2018-11-21T11:07:24.547Z,83.80
2018-11-21T11:10:15.910Z,84.20
2018-11-21T11:13:04.243Z,83.70
2018-11-21T11:15:58.207Z,83.30
2018-11-21T11:18:54.638Z,83.30
2018-11-21T11:21:32.890Z,83.40
2018-11-21T11:24:19.647Z,83.20
2018-11-21T11:27:12.933Z,83.10
2018-11-21T11:29:59.389Z,83.20
2018-11-21T11:32:47.039Z,83.10
2018-11-21T11:35:40.868Z,83.30
2018-11-21T11:41:38.500Z,83.50
2018-11-21T11:44:28.655Z,83.60
2018-11-21T11:47:29.144Z,83.60
2018-11-21T11:50:19.567Z,83.50
2018-11-21T11:53:07.940Z,83.20
2018-11-21T11:55:55.144Z,83.00
2018-11-21T11:58:48.375Z,82.90
2018-11-21T12:01:41.806Z,82.90
2018-11-21T12:04:41.464Z,83.00
2018-11-21T12:07:27.882Z,82.90
2018-11-21T12:10:14.389Z,83.10
2018-11-21T12:13:13.997Z,83.00
2018-11-21T12:15:53.403Z,83.00
2018-11-21T12:18:45.306Z,83.00
2018-11-21T12:21:48.386Z,82.70
2018-11-21T12:24:34.950Z,82.70
2018-11-21T12:27:21.065Z,83.00
2018-11-21T12:30:06.268Z,82.20
2018-11-21T12:33:03.105Z,81.60
2018-11-21T12:35:49.471Z,82.70
2018-11-21T12:38:36.201Z,82.70
2018-11-21T12:41:23.097Z,82.90
2018-11-21T12:44:22.174Z,82.50
2018-11-21T12:47:30.518Z,82.50
2018-11-21T12:50:41.613Z,82.40
2018-11-21T12:53:30.452Z,82.40
2018-11-21T12:56:31.145Z,82.70
2018-11-21T12:59:19.137Z,82.30
2018-11-21T13:02:06.055Z,82.10
2018-11-21T13:04:50.652Z,82.30
2018-11-21T13:07:25.807Z,81.60
2018-11-21T13:10:12.549Z,81.90
2018-11-21T13:13:06.654Z,81.70
2018-11-21T13:15:54.455Z,81.60
2018-11-21T13:18:42.308Z,81.80
2018-11-21T13:21:22.974Z,82.00
2018-11-21T13:27:22.373Z,82.20
2018-11-21T13:30:25.355Z,81.90
2018-11-21T13:33:24.978Z,82.00
2018-11-21T13:36:11.209Z,81.70
2018-11-21T13:38:57.593Z,82.10
2018-11-21T13:41:54.080Z,82.40
2018-11-21T13:44:40.174Z,82.60
2018-11-21T13:47:27.654Z,82.50
2018-11-21T13:50:13.993Z,82.70
2018-11-21T13:53:01.522Z,82.50
2018-11-21T13:55:30.309Z,82.70
2018-11-21T13:57:58.591Z,82.80
2018-11-21T14:00:26.884Z,82.90
2018-11-21T14:02:55.192Z,82.70
2018-11-21T14:05:23.566Z,82.70
2018-11-21T14:07:51.942Z,82.60
2018-11-21T14:10:20.289Z,82.40
2018-11-21T14:12:48.864Z,82.40
2018-11-21T14:15:17.588Z,82.40
2018-11-21T14:17:45.931Z,82.50
2018-11-21T14:20:14.555Z,82.30
2018-11-21T14:22:42.939Z,82.50
2018-11-21T14:25:11.906Z,82.30
2018-11-21T14:27:40.291Z,82.20
2018-11-21T14:30:14.146Z,82.20
2018-11-21T14:32:43.275Z,82.30
2018-11-21T14:35:13.123Z,82.40
2018-11-21T14:37:41.873Z,82.60
2018-11-21T14:40:12.680Z,83.30
2018-11-21T14:42:41.125Z,82.50
2018-11-21T14:45:11.875Z,82.80
2018-11-21T14:47:40.291Z,82.90
2018-11-21T14:50:13.137Z,82.90
2018-11-21T14:52:41.508Z,83.10
2018-11-21T14:55:10.101Z,83.30
2018-11-21T14:57:38.390Z,83.40
2018-11-21T15:00:14.839Z,83.30
2018-11-21T15:02:43.749Z,83.30
2018-11-21T15:05:12.723Z,83.60
2018-11-21T15:07:42.036Z,83.60
2018-11-21T15:10:11.446Z,84.40
2018-11-21T15:12:39.827Z,83.90
2018-11-21T15:15:16.621Z,84.10
2018-11-21T15:17:44.881Z,84.40
2018-11-21T15:20:14.971Z,84.30
2018-11-21T15:22:43.510Z,84.50
2018-11-21T15:25:16.173Z,84.50
2018-11-21T15:27:44.592Z,84.70
2018-11-21T15:30:16.114Z,84.60
2018-11-21T15:32:44.763Z,84.70
2018-11-21T15:35:13.089Z,84.50
2018-11-21T15:37:42.272Z,84.80
2018-11-21T15:40:18.299Z,85.20
2018-11-21T15:42:47.015Z,85.10
2018-11-21T15:45:16.985Z,85.20
2018-11-21T15:47:50.348Z,85.20
2018-11-21T15:50:18.824Z,85.30
2018-11-21T15:52:52.684Z,85.30
2018-11-21T15:55:16.453Z,85.20
2018-11-21T15:57:44.792Z,85.00
2018-11-21T16:00:14.739Z,84.50
2018-11-21T16:02:43.829Z,84.20
2018-11-21T16:05:12.178Z,84.40
2018-11-21T16:07:40.567Z,84.20
2018-11-21T16:10:18.496Z,84.30
2018-11-21T16:12:40.351Z,84.20
2018-11-21T16:15:14.497Z,84.50
2018-11-21T16:17:42.987Z,84.80
2018-11-21T16:20:12.875Z,85.70
2018-11-21T16:22:41.521Z,85.30
2018-11-21T16:25:11.674Z,85.10
2018-11-21T16:27:40.569Z,85.20
2018-11-21T16:30:11.008Z,85.40
2018-11-21T16:32:39.532Z,85.50
2018-11-21T16:35:08.647Z,85.30
2018-11-21T16:37:36.945Z,85.10
2018-11-21T16:40:08.216Z,85.10
2018-11-21T16:42:36.509Z,85.00
2018-11-21T16:45:05.537Z,84.80
2018-11-21T16:47:34.077Z,84.90
2018-11-21T16:50:02.391Z,84.80
2018-11-21T16:52:30.716Z,84.40
2018-11-21T16:54:59.922Z,84.10
2018-11-21T16:57:38.124Z,83.90
2018-11-21T17:00:18.780Z,83.80
2018-11-21T17:02:45.079Z,83.80
2018-11-21T17:05:17.918Z,84.00
2018-11-21T17:07:46.872Z,83.90
2018-11-21T17:10:16.515Z,83.80
2018-11-21T17:12:45.426Z,83.70
2018-11-21T17:15:19.182Z,83.60
2018-11-21T17:17:51.791Z,84.20
2018-11-21T17:20:27.377Z,83.20
2018-11-21T17:22:58.569Z,83.00
2018-11-21T17:25:29.076Z,83.20
2018-11-21T17:27:58.126Z,83.50
2018-11-21T17:30:31.530Z,83.50
2018-11-21T17:32:59.883Z,83.00
2018-11-21T17:35:33.677Z,83.20
2018-11-21T17:38:02.266Z,83.10
2018-11-21T17:40:32.580Z,83.00
2018-11-21T17:43:00.909Z,82.90
2018-11-21T17:45:29.518Z,83.30
2018-11-21T17:47:57.852Z,83.40
2018-11-21T17:50:26.219Z,83.40
2018-11-21T17:52:56.104Z,83.50
2018-11-21T17:55:26.012Z,83.50
2018-11-21T17:57:54.290Z,83.20
2018-11-21T18:00:24.234Z,83.40
2018-11-21T18:02:52.549Z,83.40
2018-11-21T18:05:22.624Z,83.40
2018-11-21T18:07:51.532Z,83.80
2018-11-21T18:10:21.881Z,84.00
2018-11-21T18:12:50.027Z,84.10
2018-11-21T18:15:18.776Z,84.20
2018-11-21T18:17:47.929Z,84.40
2018-11-21T18:20:17.112Z,84.40
2018-11-21T18:22:46.705Z,84.10
2018-11-21T18:25:16.584Z,84.10
2018-11-21T18:27:45.425Z,84.20
2018-11-21T18:30:18.924Z,84.30
2018-11-21T18:32:47.678Z,83.90
2018-11-21T18:35:17.828Z,83.90
2018-11-21T18:37:46.572Z,83.90
2018-11-21T18:40:22.881Z,84.20
2018-11-21T18:42:51.171Z,84.00
2018-11-21T18:45:22.270Z,83.40
2018-11-21T18:47:51.340Z,83.50
2018-11-21T18:50:20.234Z,83.40
2018-11-21T18:52:49.647Z,83.00
2018-11-21T18:55:20.637Z,83.00
2018-11-21T18:58:33.847Z,82.80
2018-11-21T19:01:02.445Z,83.60
2018-11-21T19:03:30.806Z,83.40
2018-11-21T19:05:59.191Z,83.30
2018-11-21T19:08:27.517Z,83.30
2018-11-21T19:10:56.030Z,83.10
2018-11-21T19:13:25.530Z,83.00
2018-11-21T19:15:53.853Z,83.30
2018-11-21T19:18:22.129Z,83.20
2018-11-21T19:20:50.605Z,83.30
2018-11-21T19:23:19.040Z,83.40
2018-11-21T19:25:47.398Z,83.60
2018-11-21T19:28:15.704Z,83.60
2018-11-21T19:30:44.289Z,83.50
2018-11-21T19:33:12.571Z,83.20
2018-11-21T19:35:40.894Z,83.00
2018-11-21T19:38:09.464Z,83.00
2018-11-21T19:40:37.742Z,83.00
2018-11-21T19:43:08.781Z,83.20
2018-11-21T19:45:37.072Z,82.80
2018-11-21T19:48:05.858Z,82.50
2018-11-21T19:50:34.134Z,82.50
2018-11-21T19:53:02.430Z,82.60
2018-11-21T19:55:32.164Z,82.60
2018-11-21T19:58:00.455Z,82.50
2018-11-21T20:00:30.360Z,82.80
2018-11-21T20:02:58.730Z,82.50
2018-11-21T20:05:27.143Z,82.10
2018-11-21T20:07:55.517Z,82.10
2018-11-21T20:10:23.985Z,82.40
2018-11-21T20:12:52.305Z,82.10
2018-11-21T20:15:22.272Z,81.90
2018-11-21T20:17:52.104Z,82.30
2018-11-21T20:20:21.182Z,82.20
2018-11-21T20:22:50.182Z,82.20
2018-11-21T20:25:19.705Z,82.50
2018-11-21T20:27:48.190Z,82.30
2018-11-21T20:30:31.297Z,82.50
2018-11-21T20:32:59.626Z,82.30
2018-11-21T20:35:27.948Z,82.80
2018-11-21T20:37:56.234Z,83.10
2018-11-21T20:40:26.251Z,83.30
2018-11-21T20:42:54.589Z,83.00
2018-11-21T20:45:24.233Z,83.20
2018-11-21T20:47:53.636Z,83.30
2018-11-21T20:50:22.158Z,83.30
2018-11-21T20:52:50.688Z,83.20
2018-11-21T20:55:20.411Z,82.80
2018-11-21T20:57:48.926Z,82.90
2018-11-21T21:00:24.561Z,82.90
2018-11-21T21:02:52.839Z,82.90
2018-11-21T21:05:23.112Z,82.70
2018-11-21T21:07:51.397Z,83.00
2018-11-21T21:10:21.207Z,82.90
2018-11-21T21:12:49.959Z,82.90
2018-11-21T21:15:18.225Z,82.70
2018-11-21T21:17:47.513Z,82.50
2018-11-21T21:20:17.562Z,82.30
2018-11-21T21:22:46.706Z,81.70
2018-11-21T21:25:16.700Z,81.10
2018-11-21T21:27:45.022Z,81.10
2018-11-21T21:30:33.461Z,81.70
2018-11-21T21:33:01.884Z,81.90
2018-11-21T21:35:31.702Z,81.90
2018-11-21T21:37:59.975Z,82.20
2018-11-21T21:40:28.340Z,82.10
2018-11-21T21:42:56.613Z,82.00
2018-11-21T21:45:26.525Z,82.00
2018-11-21T21:47:54.867Z,81.90
2018-11-21T21:50:27.767Z,81.70
2018-11-21T21:52:56.286Z,81.70
2018-11-21T21:55:25.729Z,81.60
2018-11-21T21:57:54.045Z,81.90
2018-11-21T22:00:23.732Z,81.90
2018-11-21T22:02:52.749Z,81.80
2018-11-21T22:05:21.141Z,81.70
2018-11-21T22:07:49.425Z,81.50
2018-11-21T22:10:18.556Z,81.70
2018-11-21T22:12:46.991Z,81.80
2018-11-21T22:15:25.980Z,81.60
2018-11-21T22:17:55.293Z,82.40
2018-11-21T22:20:24.071Z,81.70
2018-11-21T22:22:52.778Z,81.70
2018-11-21T22:25:21.839Z,82.00
2018-11-21T22:27:50.150Z,82.00
2018-11-21T22:30:19.249Z,81.60
2018-11-21T22:32:49.037Z,81.70
2018-11-21T22:35:18.861Z,82.00
2018-11-21T22:37:51.172Z,82.10
2018-11-21T22:40:16.840Z,82.20
2018-11-21T22:42:45.647Z,83.20
2018-11-21T22:45:15.461Z,82.30
2018-11-21T22:47:44.164Z,82.40
2018-11-21T22:50:14.726Z,82.60
2018-11-21T22:52:43.273Z,82.70
2018-11-21T22:55:12.678Z,82.80
2018-11-21T22:57:41.516Z,83.10
2018-11-21T23:00:14.949Z,83.00
2018-11-21T23:02:43.765Z,83.00
2018-11-21T23:05:12.440Z,82.90
2018-11-21T23:07:42.062Z,83.00
2018-11-21T23:10:11.484Z,83.10
2018-11-21T23:12:40.470Z,82.80
2018-11-21T23:15:09.965Z,82.80
2018-11-21T23:17:38.295Z,82.90
2018-11-21T23:20:08.764Z,83.20
2018-11-21T23:22:37.131Z,83.40
2018-11-21T23:25:06.247Z,83.30
2018-11-21T23:27:34.763Z,83.50
2018-11-21T23:30:03.055Z,83.50
2018-11-21T23:32:31.488Z,83.60
2018-11-21T23:34:59.796Z,83.70
2018-11-21T23:37:28.068Z,83.60
2018-11-21T23:39:56.372Z,83.90
2018-11-21T23:42:24.780Z,84.00
2018-11-21T23:44:53.200Z,83.90
2018-11-21T23:47:21.474Z,83.90
2018-11-21T23:49:50.096Z,84.00
2018-11-21T23:52:18.436Z,83.90
2018-11-21T23:54:47.040Z,83.60
2018-11-21T23:57:16.589Z,83.60
2018-11-21T23:59:43.623Z,83.80
